Time;durP1;ratioP1;P1;durP2;ratioP2;P2;SDS_P1;SDS_P2;PMS_P1;PMS_P2;Temp;Humidity;BMP_temperature;BMP_pressure;BME280_temperature;BME280_humidity;BME280_pressure;Samples;Min_cycle;Max_cycle;Signal;HPM_P1;HPM_P2
2023/07/04 00:01:21;;;;;;;13.20;5.38;;;23.10;57.70;;;;;;5010287;28;20033;-53
2023/07/04 00:03:51;;;;;;;15.90;5.90;;;23.20;57.90;;;;;;5007305;28;20444;-55
2023/07/04 00:06:18;;;;;;;13.82;5.80;;;23.10;57.60;;;;;;5010465;28;20037;-54
2023/07/04 00:08:44;;;;;;;14.25;5.78;;;23.10;57.90;;;;;;5010498;28;20219;-55
2023/07/04 00:15:25;;;;;;;15.60;5.93;;;23.10;57.50;;;;;;5011578;28;20028;-54
2023/07/04 00:17:51;;;;;;;14.43;5.95;;;23.10;57.60;;;;;;5013779;28;20029;-53
2023/07/04 00:20:17;;;;;;;13.70;5.68;;;23.10;57.70;;;;;;5013895;28;20033;-56
2023/07/04 00:22:44;;;;;;;14.15;5.93;;;23.10;57.50;;;;;;5013987;28;20055;-55
2023/07/04 00:25:10;;;;;;;15.77;5.75;;;23.10;57.60;;;;;;5011848;28;20029;-56
2023/07/04 00:27:36;;;;;;;14.90;5.70;;;23.10;58.00;;;;;;5010973;28;20030;-53
2023/07/04 00:30:04;;;;;;;14.70;5.78;;;23.10;58.00;;;;;;5010529;28;20038;-52
2023/07/04 00:32:30;;;;;;;16.75;6.13;;;23.10;58.10;;;;;;5012139;28;20470;-54
2023/07/04 00:34:56;;;;;;;17.92;5.57;;;23.10;58.10;;;;;;5011815;28;20401;-53
2023/07/04 00:37:21;;;;;;;15.00;5.85;;;23.10;57.60;;;;;;5010676;28;20022;-51
2023/07/04 00:39:50;;;;;;;16.55;6.28;;;23.00;58.00;;;;;;5011934;28;20386;-51
2023/07/04 00:42:16;;;;;;;15.53;5.80;;;23.10;57.80;;;;;;5012119;28;20034;-51
2023/07/04 00:44:47;;;;;;;14.00;5.72;;;23.10;57.80;;;;;;5010095;28;20041;-52
2023/07/04 00:47:21;;;;;;;12.25;5.50;;;23.10;57.60;;;;;;5010796;28;20025;-55
2023/07/04 00:49:56;;;;;;;16.80;5.80;;;23.10;57.50;;;;;;5011319;28;20037;-50
2023/07/04 00:52:27;;;;;;;17.48;6.38;;;23.00;57.20;;;;;;5011798;28;20111;-54
2023/07/04 00:54:57;;;;;;;15.15;5.35;;;23.10;57.60;;;;;;5011381;28;20532;-55
2023/07/04 00:57:25;;;;;;;15.13;5.43;;;23.00;57.60;;;;;;5011727;28;20030;-53
2023/07/04 00:59:58;;;;;;;18.08;6.20;;;23.00;57.60;;;;;;5011606;28;20052;-51
2023/07/04 01:02:33;;;;;;;12.63;5.68;;;23.10;57.70;;;;;;5010218;28;20379;-52
2023/07/04 01:05:01;;;;;;;13.63;5.60;;;23.00;57.80;;;;;;5010952;28;20030;-51
2023/07/04 01:07:31;;;;;;;16.83;6.10;;;23.00;57.90;;;;;;5010267;28;20482;-54
2023/07/04 01:10:10;;;;;;;14.30;5.30;;;23.10;58.20;;;;;;5009965;28;20084;-55
2023/07/04 01:12:37;;;;;;;20.10;6.37;;;23.10;58.10;;;;;;5011086;28;20500;-50
2023/07/04 01:15:03;;;;;;;13.30;5.60;;;23.00;57.90;;;;;;5011007;28;20272;-53
2023/07/04 01:17:30;;;;;;;18.27;5.65;;;23.00;58.00;;;;;;5010390;28;20057;-52
2023/07/04 01:19:58;;;;;;;13.48;5.38;;;23.00;58.10;;;;;;5010154;28;20395;-53
2023/07/04 01:22:41;;;;;;;14.27;5.65;;;23.00;58.10;;;;;;5011392;28;20129;-52
2023/07/04 01:25:37;;;;;;;16.30;5.45;;;23.00;58.00;;;;;;5010622;28;20030;-51
2023/07/04 01:28:05;;;;;;;12.63;5.55;;;23.00;58.00;;;;;;5009733;28;20033;-53
2023/07/04 01:30:37;;;;;;;11.18;5.07;;;23.00;58.30;;;;;;5010562;28;20037;-53
2023/07/04 01:33:03;;;;;;;12.27;5.13;;;23.00;58.30;;;;;;5009852;28;20037;-53
2023/07/04 01:35:29;;;;;;;12.75;5.43;;;23.00;58.40;;;;;;5009270;28;20030;-49
2023/07/04 01:37:55;;;;;;;12.90;4.95;;;23.00;58.30;;;;;;5009554;28;20508;-54
2023/07/04 01:40:21;;;;;;;14.63;5.20;;;23.00;58.10;;;;;;5010920;28;20026;-53
2023/07/04 01:42:48;;;;;;;17.17;5.43;;;23.00;58.40;;;;;;5010951;28;20401;-53
2023/07/04 01:45:14;;;;;;;13.13;5.45;;;23.00;58.40;;;;;;5009030;28;20026;-54
2023/07/04 01:47:41;;;;;;;11.07;4.82;;;23.00;58.30;;;;;;5010808;28;20405;-53
2023/07/04 01:50:09;;;;;;;10.77;4.80;;;23.00;58.50;;;;;;5010288;28;20026;-48
2023/07/04 01:52:36;;;;;;;11.88;5.18;;;23.00;58.30;;;;;;5010836;28;20030;-54
2023/07/04 01:55:02;;;;;;;14.15;5.05;;;23.00;58.20;;;;;;5010465;28;20026;-53
2023/07/04 01:57:28;;;;;;;15.05;4.85;;;23.00;58.30;;;;;;5009466;28;20037;-55
2023/07/04 01:59:54;;;;;;;10.85;4.85;;;23.00;58.20;;;;;;5009460;28;20026;-53
2023/07/04 02:02:19;;;;;;;10.05;4.78;;;23.00;58.20;;;;;;5010633;28;20033;-51
2023/07/04 02:04:45;;;;;;;10.10;4.72;;;23.00;58.20;;;;;;5009854;28;20040;-51
2023/07/04 02:07:11;;;;;;;11.63;5.22;;;23.00;58.30;;;;;;5010438;28;20033;-50
2023/07/04 02:09:37;;;;;;;11.15;4.63;;;23.00;58.20;;;;;;5009935;28;20456;-55
2023/07/04 02:12:03;;;;;;;13.48;5.93;;;23.00;58.10;;;;;;5010285;28;20042;-53
2023/07/04 02:14:29;;;;;;;9.90;4.78;;;23.00;58.40;;;;;;5010089;28;20026;-53
2023/07/04 02:16:55;;;;;;;9.88;4.63;;;23.00;58.40;;;;;;5010050;28;20033;-53
2023/07/04 02:19:21;;;;;;;12.10;5.07;;;23.00;58.50;;;;;;5010404;28;20054;-52
2023/07/04 02:21:47;;;;;;;12.30;5.28;;;23.00;58.20;;;;;;5010284;28;20527;-53
2023/07/04 02:24:13;;;;;;;15.38;5.28;;;23.00;58.20;;;;;;5009224;28;20501;-55
2023/07/04 02:26:39;;;;;;;11.82;5.47;;;22.90;58.40;;;;;;5009669;28;20101;-53
2023/07/04 02:29:05;;;;;;;11.30;4.65;;;23.00;58.60;;;;;;5008778;28;20076;-53
2023/07/04 02:31:31;;;;;;;12.18;5.28;;;23.00;58.20;;;;;;5008365;28;20497;-52
2023/07/04 02:33:58;;;;;;;11.65;4.82;;;23.00;58.40;;;;;;5009884;28;20095;-54
2023/07/04 02:36:25;;;;;;;13.25;5.43;;;22.90;58.00;;;;;;5008738;28;20030;-55
2023/07/04 02:38:51;;;;;;;10.98;4.72;;;22.90;58.30;;;;;;5008861;28;20080;-50
2023/07/04 02:41:17;;;;;;;11.80;4.32;;;22.90;58.10;;;;;;5008791;28;20528;-52
2023/07/04 02:43:43;;;;;;;12.23;4.95;;;22.90;58.50;;;;;;5008489;28;20112;-52
2023/07/04 02:46:10;;;;;;;11.65;4.95;;;22.90;58.50;;;;;;5009436;28;20402;-53
2023/07/04 02:48:40;;;;;;;12.48;5.00;;;22.90;58.80;;;;;;5008304;28;20185;-51
2023/07/04 02:51:06;;;;;;;10.80;4.63;;;22.90;58.30;;;;;;5007961;28;20105;-53
2023/07/04 02:53:32;;;;;;;12.13;4.80;;;22.90;58.60;;;;;;5008184;28;20549;-52
2023/07/04 02:55:58;;;;;;;11.10;4.85;;;22.90;58.30;;;;;;5008381;28;20033;-55
2023/07/04 02:58:28;;;;;;;10.13;4.50;;;22.90;58.10;;;;;;5008629;28;20033;-54
2023/07/04 03:00:53;;;;;;;11.70;4.68;;;22.90;58.30;;;;;;5008458;28;20577;-53
2023/07/04 03:03:22;;;;;;;10.23;4.43;;;22.90;58.70;;;;;;5008311;28;20037;-54
2023/07/04 03:05:49;;;;;;;12.63;4.85;;;22.90;58.30;;;;;;5007791;28;20509;-51
2023/07/04 03:08:15;;;;;;;10.73;4.38;;;22.90;58.30;;;;;;5008538;28;20033;-54
2023/07/04 03:10:45;;;;;;;12.80;4.88;;;22.90;58.50;;;;;;5007966;28;20540;-48
2023/07/04 03:13:12;;;;;;;11.18;4.75;;;22.90;58.40;;;;;;5008366;28;20033;-49
2023/07/04 03:15:38;;;;;;;12.13;5.20;;;22.90;58.10;;;;;;5007953;28;20037;-55
2023/07/04 03:18:04;;;;;;;12.52;4.55;;;22.90;58.30;;;;;;5008478;28;20022;-48
2023/07/04 03:20:30;;;;;;;8.80;4.35;;;22.90;58.10;;;;;;5009561;28;20458;-48
2023/07/04 03:22:56;;;;;;;11.18;4.68;;;22.90;58.30;;;;;;5008532;28;20401;-48
2023/07/04 03:25:23;;;;;;;11.38;4.40;;;22.90;58.30;;;;;;5007649;28;20034;-48
2023/07/04 03:27:53;;;;;;;9.23;4.50;;;22.90;58.60;;;;;;5008423;28;20030;-51
2023/07/04 03:30:24;;;;;;;12.23;4.82;;;22.90;58.40;;;;;;5007564;28;20061;-53
2023/07/04 03:32:53;;;;;;;9.07;4.13;;;22.90;58.20;;;;;;5008212;28;20109;-51
2023/07/04 03:35:19;;;;;;;11.25;4.68;;;22.90;58.50;;;;;;5009467;28;20105;-50
2023/07/04 03:37:46;;;;;;;13.40;4.97;;;22.90;58.20;;;;;;5012352;28;20446;-49
2023/07/04 03:40:12;;;;;;;11.40;4.50;;;22.90;58.10;;;;;;5013070;28;20120;-50
2023/07/04 03:42:39;;;;;;;9.00;4.47;;;22.90;58.20;;;;;;5011859;28;20084;-55
2023/07/04 03:45:06;;;;;;;9.10;4.40;;;22.90;58.20;;;;;;5011327;28;20069;-48
2023/07/04 03:47:32;;;;;;;13.57;4.88;;;22.90;58.20;;;;;;5011615;28;20041;-50
2023/07/04 03:49:58;;;;;;;8.13;4.15;;;22.90;58.30;;;;;;5011760;28;20030;-50
2023/07/04 03:52:24;;;;;;;11.48;4.35;;;22.90;58.30;;;;;;5012726;28;20049;-53
2023/07/04 03:54:51;;;;;;;10.18;4.72;;;22.90;58.30;;;;;;5011565;28;20044;-50
2023/07/04 03:57:17;;;;;;;10.55;4.20;;;22.90;58.40;;;;;;5011431;28;20515;-49
2023/07/04 03:59:43;;;;;;;10.13;4.35;;;22.90;58.50;;;;;;5012912;28;20029;-55
2023/07/04 04:02:09;;;;;;;10.93;4.80;;;22.90;58.60;;;;;;5012638;28;20061;-51
2023/07/04 04:04:38;;;;;;;10.55;4.32;;;22.90;58.40;;;;;;5012267;28;20064;-50
2023/07/04 04:07:07;;;;;;;;;;;22.90;58.50;;;;;;5013313;28;20041;-50
2023/07/04 04:09:34;;;;;;;8.40;4.15;;;22.90;58.50;;;;;;5012442;28;19952;-48
2023/07/04 04:12:00;;;;;;;13.82;4.85;;;22.90;58.50;;;;;;5012229;28;20026;-55
2023/07/04 04:14:29;;;;;;;8.85;3.97;;;22.90;58.50;;;;;;5012365;28;20026;-53
2023/07/04 04:16:56;;;;;;;8.57;4.00;;;22.90;59.00;;;;;;5012489;28;20064;-53
2023/07/04 04:19:22;;;;;;;11.25;4.63;;;22.90;58.60;;;;;;5012556;28;20153;-50
2023/07/04 04:21:48;;;;;;;12.05;4.30;;;22.90;58.50;;;;;;5012352;28;20438;-53
2023/07/04 04:24:14;;;;;;;8.95;4.20;;;22.90;58.60;;;;;;5012158;28;20153;-54
2023/07/04 04:26:40;;;;;;;10.90;4.78;;;22.90;58.40;;;;;;5011860;28;20401;-49
2023/07/04 04:29:06;;;;;;;9.80;4.25;;;22.90;58.40;;;;;;5012086;28;20125;-48
2023/07/04 04:31:37;;;;;;;11.27;3.50;;;22.90;58.20;;;;;;5011716;28;20501;-53
2023/07/04 04:34:05;;;;;;;8.55;4.40;;;22.90;58.60;;;;;;5011994;28;20021;-54
2023/07/04 04:36:31;;;;;;;12.05;4.47;;;22.90;58.30;;;;;;5012056;28;20022;-52
2023/07/04 04:38:59;;;;;;;9.80;4.20;;;22.90;58.20;;;;;;5012175;28;20018;-53
2023/07/04 04:41:26;;;;;;;9.75;4.10;;;22.90;58.20;;;;;;5012237;28;20026;-55
2023/07/04 04:43:53;;;;;;;12.70;4.35;;;22.90;58.20;;;;;;5011928;28;20084;-55
2023/07/04 04:46:19;;;;;;;10.70;4.00;;;22.90;58.20;;;;;;5010651;28;20037;-55
2023/07/04 04:48:45;;;;;;;8.55;4.03;;;22.90;58.40;;;;;;5011951;28;20033;-52
2023/07/04 04:51:14;;;;;;;8.27;3.90;;;22.90;58.10;;;;;;5010119;28;20061;-52
2023/07/04 04:53:44;;;;;;;9.02;4.35;;;22.90;58.20;;;;;;5011406;28;20026;-51
2023/07/04 04:56:11;;;;;;;9.48;4.13;;;22.90;58.30;;;;;;5011693;28;20022;-54
2023/07/04 04:58:37;;;;;;;8.88;4.18;;;22.90;58.30;;;;;;5011696;28;20108;-55
2023/07/04 05:01:23;;;;;;;8.23;3.97;;;22.90;58.30;;;;;;5011585;28;20161;-52
2023/07/04 05:03:54;;;;;;;7.85;4.13;;;22.90;58.50;;;;;;5011282;28;20038;-55
2023/07/04 05:06:23;;;;;;;7.57;3.90;;;22.90;58.50;;;;;;5010924;28;20030;-50
2023/07/04 05:08:50;;;;;;;9.80;4.20;;;22.80;58.40;;;;;;5007290;28;20050;-51
2023/07/04 05:11:16;;;;;;;9.80;4.45;;;22.90;58.40;;;;;;5006139;28;20486;-54
2023/07/04 05:13:45;;;;;;;10.18;4.47;;;22.90;58.40;;;;;;5010230;28;20017;-48
2023/07/04 05:16:13;;;;;;;7.43;3.53;;;22.90;58.50;;;;;;5010545;28;20481;-54
2023/07/04 05:18:40;;;;;;;10.13;4.65;;;22.90;58.50;;;;;;5011022;28;20567;-53
2023/07/04 05:21:08;;;;;;;14.43;4.70;;;22.80;58.50;;;;;;5010888;28;20520;-49
2023/07/04 05:23:38;;;;;;;7.75;3.97;;;22.90;59.10;;;;;;5010713;28;20105;-49
2023/07/04 05:26:09;;;;;;;11.55;4.35;;;22.90;58.70;;;;;;5010491;28;20060;-50
2023/07/04 05:28:36;;;;;;;8.20;3.90;;;22.90;58.70;;;;;;5010868;28;20449;-53
2023/07/04 05:31:05;;;;;;;10.13;4.10;;;22.90;58.70;;;;;;5010009;28;20056;-50
2023/07/04 05:33:32;;;;;;;9.40;4.15;;;22.80;58.60;;;;;;5010407;28;20018;-53
2023/07/04 05:36:13;;;;;;;13.00;4.13;;;22.90;58.60;;;;;;5009370;28;20026;-55
2023/07/04 05:38:40;;;;;;;11.05;4.47;;;22.90;58.40;;;;;;5010759;28;20105;-50
2023/07/04 05:41:11;;;;;;;8.98;4.00;;;22.80;58.60;;;;;;5010050;28;20026;-50
2023/07/04 05:43:38;;;;;;;9.38;4.50;;;22.80;58.40;;;;;;5010531;28;20088;-53
2023/07/04 05:46:05;;;;;;;8.18;3.90;;;22.90;58.50;;;;;;5009904;28;20032;-48
2023/07/04 05:48:30;;;;;;;8.10;3.60;;;22.90;58.30;;;;;;5010273;28;20100;-51
2023/07/04 05:50:58;;;;;;;9.52;3.85;;;22.90;58.30;;;;;;5009937;28;20127;-49
2023/07/04 05:53:27;;;;;;;9.07;4.30;;;22.90;58.10;;;;;;5003022;28;20025;-48
2023/07/04 05:56:12;;;;;;;9.20;4.68;;;22.90;58.10;;;;;;5010414;28;20512;-51
2023/07/04 05:58:40;;;;;;;9.07;3.83;;;22.90;58.40;;;;;;5010366;28;20026;-50
2023/07/04 06:01:10;;;;;;;8.82;4.32;;;22.90;58.20;;;;;;5010090;28;20109;-50
2023/07/04 06:03:37;;;;;;;14.85;4.82;;;22.90;58.40;;;;;;5010220;28;20026;-50
2023/07/04 06:06:04;;;;;;;12.35;4.35;;;22.90;58.20;;;;;;5009644;28;20059;-48
2023/07/04 06:08:31;;;;;;;11.40;4.43;;;22.90;58.10;;;;;;5003605;28;20080;-53
2023/07/04 06:11:02;;;;;;;9.63;4.55;;;22.90;58.30;;;;;;5009611;28;20425;-48
2023/07/04 06:13:29;;;;;;;11.38;4.18;;;22.90;58.20;;;;;;5009666;28;20030;-49
2023/07/04 06:15:55;;;;;;;11.80;4.40;;;22.90;58.40;;;;;;5009932;28;20104;-48
2023/07/04 06:18:22;;;;;;;9.02;4.05;;;22.90;58.60;;;;;;5010012;28;20026;-52
2023/07/04 06:20:48;;;;;;;11.70;4.43;;;22.90;58.50;;;;;;5010086;28;20030;-49
2023/07/04 06:23:14;;;;;;;10.18;4.65;;;22.90;58.30;;;;;;5009642;28;20037;-48
2023/07/04 06:25:40;;;;;;;9.70;4.40;;;22.90;59.00;;;;;;5009433;28;20030;-50
2023/07/04 06:28:06;;;;;;;9.90;4.85;;;22.90;58.50;;;;;;5009618;28;20508;-54
2023/07/04 06:30:34;;;;;;;9.93;4.35;;;22.90;58.50;;;;;;5009421;28;20474;-53
2023/07/04 06:33:03;;;;;;;12.50;4.45;;;22.90;58.60;;;;;;5009832;28;20042;-54
2023/07/04 06:35:30;;;;;;;12.73;4.80;;;22.90;58.80;;;;;;5009537;28;20041;-50
2023/07/04 06:37:55;;;;;;;11.40;4.40;;;22.90;58.60;;;;;;5005594;28;20101;-50
2023/07/04 06:40:21;;;;;;;8.75;4.40;;;22.90;58.60;;;;;;5007559;28;20128;-50
2023/07/04 06:42:47;;;;;;;11.50;4.72;;;22.90;58.70;;;;;;4991583;28;20151;-53
2023/07/04 06:45:13;;;;;;;9.20;4.32;;;22.90;58.60;;;;;;5008688;28;20121;-51
2023/07/04 06:47:39;;;;;;;10.43;4.35;;;22.90;58.90;;;;;;5009315;28;20058;-54
2023/07/04 06:50:06;;;;;;;12.95;4.47;;;22.90;58.70;;;;;;5009170;28;20030;-49
2023/07/04 06:52:35;;;;;;;16.50;4.53;;;22.90;58.90;;;;;;5008946;28;20493;-54
2023/07/04 06:55:01;;;;;;;9.80;4.30;;;22.90;58.70;;;;;;5008827;28;20572;-50
2023/07/04 06:57:26;;;;;;;10.25;4.18;;;22.90;59.10;;;;;;5008094;28;20026;-55
2023/07/04 06:59:52;;;;;;;11.90;4.65;;;22.90;58.90;;;;;;5009655;28;20513;-55
2023/07/04 07:02:18;;;;;;;9.25;4.22;;;22.90;58.90;;;;;;5009096;28;20022;-53
2023/07/04 07:04:44;;;;;;;16.25;4.75;;;22.90;59.80;;;;;;5008632;28;20517;-54
2023/07/04 07:07:10;;;;;;;10.90;4.60;;;22.90;59.00;;;;;;5007756;28;20651;-51
2023/07/04 07:09:38;;;;;;;11.07;4.13;;;22.90;59.00;;;;;;5009579;28;20034;-52
2023/07/04 07:12:04;;;;;;;12.65;4.78;;;22.90;59.20;;;;;;5012960;28;20045;-54
2023/07/04 07:14:30;;;;;;;15.07;4.53;;;22.90;59.10;;;;;;5013407;28;20022;-52
2023/07/04 07:16:56;;;;;;;11.45;4.47;;;22.90;59.00;;;;;;5011804;28;20109;-52
2023/07/04 07:19:23;;;;;;;9.68;4.50;;;22.90;59.00;;;;;;5009391;28;20014;-52
2023/07/04 07:21:49;;;;;;;10.75;4.47;;;22.90;59.40;;;;;;5011794;28;20068;-49
2023/07/04 07:24:15;;;;;;;10.68;4.50;;;22.90;59.00;;;;;;5012481;28;20608;-48
2023/07/04 07:26:42;;;;;;;13.07;4.50;;;22.90;58.20;;;;;;5011295;28;20094;-52
2023/07/04 07:29:08;;;;;;;9.05;4.00;;;22.90;58.60;;;;;;5013035;28;20026;-49
2023/07/04 07:31:35;;;;;;;11.45;4.50;;;22.80;57.80;;;;;;5012738;28;20497;-50
2023/07/04 07:34:02;;;;;;;11.68;4.50;;;22.80;57.50;;;;;;5012641;28;20395;-52
2023/07/04 07:36:37;;;;;;;14.90;4.75;;;22.80;58.00;;;;;;5012895;28;20018;-54
2023/07/04 07:39:04;;;;;;;11.93;4.60;;;22.80;57.10;;;;;;5012806;28;20054;-52
2023/07/04 07:41:33;;;;;;;12.82;4.22;;;22.80;57.20;;;;;;5012926;28;20437;-52
2023/07/04 07:44:00;;;;;;;11.30;4.20;;;22.80;56.70;;;;;;5008325;28;20026;-48
2023/07/04 07:46:26;;;;;;;13.80;4.43;;;22.80;54.40;;;;;;5010518;28;20022;-53
2023/07/04 07:48:51;;;;;;;11.02;4.50;;;22.80;55.90;;;;;;5010460;28;20034;-55
2023/07/04 07:51:19;;;;;;;10.05;3.85;;;22.70;55.80;;;;;;5010465;28;20033;-54
2023/07/04 07:53:47;;;;;;;11.07;4.10;;;22.80;54.80;;;;;;5010723;28;20029;-48
2023/07/04 07:56:16;;;;;;;11.73;3.83;;;22.80;54.60;;;;;;5010830;28;20072;-51
2023/07/04 07:58:42;;;;;;;9.23;3.92;;;22.80;54.50;;;;;;5009873;28;20033;-52
2023/07/04 08:01:12;;;;;;;11.20;3.85;;;22.80;54.20;;;;;;5010859;28;20030;-49
2023/07/04 08:03:38;;;;;;;11.60;3.90;;;22.80;53.40;;;;;;5010785;28;20034;-49
2023/07/04 08:06:05;;;;;;;13.68;4.25;;;22.90;54.60;;;;;;5008631;28;20061;-49
2023/07/04 08:08:31;;;;;;;11.45;3.97;;;22.90;53.20;;;;;;5009776;28;20485;-52
2023/07/04 08:10:57;;;;;;;12.48;3.72;;;22.90;53.10;;;;;;5010566;28;20112;-52
2023/07/04 08:13:23;;;;;;;15.23;3.70;;;22.90;54.10;;;;;;5009938;28;20112;-52
2023/07/04 08:15:56;;;;;;;8.93;3.47;;;22.90;53.70;;;;;;5010821;28;20144;-54
2023/07/04 08:18:22;;;;;;;10.63;3.88;;;22.90;53.50;;;;;;5006600;28;20026;-49
2023/07/04 08:20:58;;;;;;;13.30;4.30;;;22.90;54.60;;;;;;5009295;28;20041;-51
2023/07/04 08:23:24;;;;;;;10.27;3.28;;;22.90;53.00;;;;;;5008998;28;20030;-53
2023/07/04 08:25:50;;;;;;;9.43;3.50;;;22.90;52.70;;;;;;5010290;28;20021;-52
2023/07/04 08:28:17;;;;;;;9.52;3.17;;;22.90;53.50;;;;;;5009869;28;20762;-54
2023/07/04 08:30:43;;;;;;;9.55;3.22;;;22.80;54.10;;;;;;5010272;28;20041;-51
2023/07/04 08:33:09;;;;;;;7.93;3.53;;;22.90;54.50;;;;;;5009636;28;20026;-51
2023/07/04 08:35:35;;;;;;;8.27;3.50;;;22.80;54.20;;;;;;5009755;28;20025;-55
2023/07/04 08:38:01;;;;;;;10.32;3.33;;;22.80;54.10;;;;;;5007562;28;20280;-51
2023/07/04 08:40:27;;;;;;;12.55;3.08;;;22.80;53.30;;;;;;5008225;28;20417;-54
2023/07/04 08:42:53;;;;;;;10.15;3.10;;;22.80;53.40;;;;;;5009904;28;20026;-52
2023/07/04 08:45:26;;;;;;;6.25;2.92;;;22.80;53.90;;;;;;5008986;28;20026;-53
2023/07/04 08:47:55;;;;;;;9.50;3.53;;;22.80;53.50;;;;;;5010014;28;20478;-54
2023/07/04 08:50:28;;;;;;;6.75;2.85;;;22.80;54.00;;;;;;5008419;28;20116;-55
2023/07/04 08:53:06;;;;;;;8.68;2.70;;;22.80;54.00;;;;;;5010115;28;20109;-51
2023/07/04 08:55:37;;;;;;;7.63;3.00;;;22.80;53.60;;;;;;5006519;28;20158;-54
2023/07/04 08:58:03;;;;;;;7.72;3.20;;;22.80;53.70;;;;;;5008721;28;20036;-54
2023/07/04 09:00:43;;;;;;;9.98;3.17;;;22.90;52.50;;;;;;5010110;28;20096;-55
2023/07/04 09:03:38;;;;;;;7.95;3.20;;;22.80;51.90;;;;;;5008039;28;20482;-54
2023/07/04 09:06:14;;;;;;;9.40;2.72;;;22.90;51.70;;;;;;5008736;28;20026;-55
2023/07/04 09:08:58;;;;;;;11.00;2.90;;;22.90;52.30;;;;;;5009727;28;20040;-54
2023/07/04 09:11:25;;;;;;;8.82;2.90;;;22.90;51.50;;;;;;5009349;28;20080;-55
2023/07/04 09:14:17;;;;;;;10.45;2.90;;;22.90;51.70;;;;;;5009456;28;20566;-53
2023/07/04 09:16:48;;;;;;;9.50;3.15;;;22.90;52.10;;;;;;5007140;28;20034;-55
2023/07/04 09:19:19;;;;;;;12.98;3.38;;;22.90;53.40;;;;;;5009042;28;20026;-51
2023/07/04 09:21:45;;;;;;;13.85;3.28;;;22.90;52.00;;;;;;5009361;28;20445;-53
2023/07/04 09:24:12;;;;;;;10.05;3.65;;;23.00;51.60;;;;;;5008938;28;20037;-50
2023/07/04 09:26:49;;;;;;;12.75;4.00;;;23.00;50.90;;;;;;5008754;28;20087;-54
2023/07/04 09:29:24;;;;;;;13.00;3.33;;;23.00;51.40;;;;;;5007696;28;20057;-51
2023/07/04 09:32:00;;;;;;;9.13;3.20;;;23.00;52.00;;;;;;5008445;28;20208;-53
2023/07/04 09:34:42;;;;;;;9.68;3.40;;;23.00;52.20;;;;;;5008141;28;20030;-50
2023/07/04 09:37:13;;;;;;;10.07;2.58;;;22.90;52.30;;;;;;5007796;28;20029;-49
2023/07/04 09:39:54;;;;;;;11.15;3.00;;;22.90;52.50;;;;;;5007885;28;20065;-50
2023/07/04 09:42:39;;;;;;;10.95;3.42;;;22.90;52.60;;;;;;5007415;28;20069;-52
2023/07/04 09:45:09;;;;;;;15.68;3.70;;;22.90;52.70;;;;;;5007725;28;20029;-53
2023/07/04 09:47:36;;;;;;;;;;;22.90;52.80;;;;;;5008629;28;20041;-53
2023/07/04 09:50:14;;;;;;;8.40;3.08;;;22.90;52.70;;;;;;5008333;28;19914;-53
2023/07/04 09:52:41;;;;;;;11.15;3.33;;;22.90;53.10;;;;;;5008851;28;20494;-51
2023/07/04 09:55:24;;;;;;;9.25;3.38;;;22.90;53.20;;;;;;5008774;28;20489;-53
2023/07/04 09:57:49;;;;;;;8.90;3.10;;;22.90;53.20;;;;;;5008742;28;20561;-53
2023/07/04 10:00:24;;;;;;;8.70;3.22;;;22.90;53.20;;;;;;5008591;28;20121;-53
2023/07/04 10:02:55;;;;;;;11.35;3.30;;;22.90;53.30;;;;;;5008929;28;20042;-49
2023/07/04 10:05:30;;;;;;;7.00;2.78;;;22.90;53.50;;;;;;5008207;28;20064;-50
2023/07/04 10:08:14;;;;;;;9.35;3.10;;;22.90;53.50;;;;;;5005612;28;20030;-53
2023/07/04 10:10:49;;;;;;;6.93;2.75;;;22.90;53.60;;;;;;5008455;28;20072;-51
2023/07/04 10:13:15;;;;;;;5.88;2.83;;;22.90;53.70;;;;;;5008457;28;20041;-53
2023/07/04 10:15:46;;;;;;;8.30;2.85;;;22.90;53.70;;;;;;5008428;28;20030;-51
2023/07/04 10:18:26;;;;;;;8.75;3.08;;;22.90;53.70;;;;;;4988688;28;20065;-48
2023/07/04 10:20:53;;;;;;;;;;;22.90;53.90;;;;;;5009032;28;20052;-53
2023/07/04 10:23:21;;;;;;;6.93;2.83;;;23.00;53.90;;;;;;5008475;28;19909;-49
2023/07/04 10:25:49;;;;;;;7.45;2.90;;;22.90;53.90;;;;;;5007988;28;20041;-52
2023/07/04 10:28:17;;;;;;;7.72;3.17;;;22.90;53.90;;;;;;5008071;28;20053;-50
2023/07/04 10:30:55;;;;;;;7.95;2.80;;;23.00;54.00;;;;;;5008421;28;20080;-50
2023/07/04 10:33:44;;;;;;;10.15;3.13;;;22.90;54.00;;;;;;5006145;28;20120;-46
2023/07/04 10:36:13;;;;;;;;;;;22.90;54.10;;;;;;5009058;28;20030;-48
2023/07/04 10:38:50;;;;;;;5.57;2.75;;;22.90;54.10;;;;;;5008502;28;20408;-53
2023/07/04 10:41:55;;;;;;;8.23;3.30;;;22.90;54.20;;;;;;5008170;28;20375;-52
2023/07/04 10:44:26;;;;;;;7.80;2.70;;;22.90;54.20;;;;;;4961959;28;20065;-52
2023/07/04 10:46:57;;;;;;;7.10;2.80;;;22.90;54.30;;;;;;5001519;28;20060;-51
2023/07/04 10:49:41;;;;;;;4.78;2.80;;;22.90;54.30;;;;;;5007947;28;20033;-52
2023/07/04 10:52:15;;;;;;;7.95;3.15;;;22.90;54.50;;;;;;5007688;28;20028;-49
2023/07/04 10:54:41;;;;;;;10.23;2.90;;;22.90;54.50;;;;;;5006711;28;20038;-51
2023/07/04 10:57:30;;;;;;;8.40;3.30;;;22.90;54.60;;;;;;5007817;28;20014;-50
2023/07/04 11:00:03;;;;;;;5.55;2.90;;;22.90;54.60;;;;;;5000896;28;20048;-53
2023/07/04 11:02:37;;;;;;;8.50;3.15;;;22.90;54.70;;;;;;5007931;28;20030;-52
2023/07/04 11:05:10;;;;;;;8.27;3.17;;;22.90;54.60;;;;;;5007305;28;20057;-52
2023/07/04 11:07:40;;;;;;;7.95;3.50;;;22.80;54.70;;;;;;5007582;28;20030;-49
2023/07/04 11:10:09;;;;;;;6.05;2.70;;;22.80;54.80;;;;;;5004178;28;20084;-52
2023/07/04 11:12:37;;;;;;;8.20;3.10;;;22.90;54.80;;;;;;5007880;28;20026;-53
2023/07/04 11:15:08;;;;;;;7.72;2.85;;;22.90;54.80;;;;;;5007915;28;20087;-51
2023/07/04 11:17:36;;;;;;;7.65;3.10;;;22.90;54.80;;;;;;5004145;28;20429;-50
2023/07/04 11:20:13;;;;;;;8.85;2.90;;;22.90;54.80;;;;;;5007599;28;20513;-50
2023/07/04 11:22:57;;;;;;;17.85;3.75;;;22.90;54.90;;;;;;5007615;28;20038;-50
2023/07/04 11:25:31;;;;;;;7.05;2.90;;;22.90;55.00;;;;;;5007594;28;20033;-53
2023/07/04 11:28:18;;;;;;;21.80;3.80;;;22.90;55.60;;;;;;5007840;28;20030;-54
2023/07/04 11:30:49;;;;;;;10.80;2.67;;;22.90;55.30;;;;;;5007090;28;20045;-51
2023/07/04 11:33:41;;;;;;;5.95;2.92;;;22.90;55.30;;;;;;5007883;28;20029;-52
2023/07/04 11:36:08;;;;;;;5.90;2.95;;;22.90;55.40;;;;;;4992086;28;20184;-54
2023/07/04 11:38:41;;;;;;;6.95;2.95;;;22.90;55.30;;;;;;5007814;28;20026;-49
2023/07/04 11:41:09;;;;;;;4.93;2.50;;;22.90;56.00;;;;;;5005671;28;20123;-49
2023/07/04 11:43:43;;;;;;;8.32;3.05;;;22.90;55.60;;;;;;5006673;28;20026;-54
2023/07/04 11:46:21;;;;;;;5.22;2.97;;;22.90;55.50;;;;;;5007177;28;20030;-54
2023/07/04 11:48:51;;;;;;;11.35;3.47;;;22.90;55.50;;;;;;5006775;28;20034;-51
2023/07/04 11:51:19;;;;;;;8.15;2.95;;;22.90;55.60;;;;;;5007204;28;20399;-50
2023/07/04 11:53:56;;;;;;;9.63;2.95;;;23.00;55.70;;;;;;5006510;28;20045;-55
2023/07/04 11:56:26;;;;;;;9.02;2.72;;;22.90;55.60;;;;;;5007755;28;20034;-53
2023/07/04 11:59:10;;;;;;;7.25;3.13;;;22.90;55.90;;;;;;5011129;28;20030;-53
2023/07/04 12:01:51;;;;;;;6.82;2.63;;;22.90;55.80;;;;;;5009033;28;20026;-53
2023/07/04 12:04:35;;;;;;;10.15;3.15;;;23.00;56.50;;;;;;5006771;28;20137;-55
2023/07/04 12:07:03;;;;;;;9.23;2.70;;;23.00;55.80;;;;;;5008204;28;20045;-48
2023/07/04 12:09:34;;;;;;;8.18;3.08;;;23.00;55.90;;;;;;5011000;28;20402;-50
2023/07/04 12:12:01;;;;;;;10.45;3.17;;;23.00;56.00;;;;;;5010463;28;20306;-51
2023/07/04 12:14:28;;;;;;;10.80;3.33;;;23.00;56.10;;;;;;5009598;28;20044;-49
2023/07/04 12:16:57;;;;;;;10.70;2.97;;;23.00;56.10;;;;;;5005199;28;20026;-48
2023/07/04 12:19:23;;;;;;;12.38;2.92;;;23.00;56.10;;;;;;5008080;28;20044;-50
2023/07/04 12:21:50;;;;;;;8.48;2.90;;;23.00;56.20;;;;;;5010797;28;20034;-49
2023/07/04 12:24:20;;;;;;;8.27;2.63;;;23.00;56.20;;;;;;5010334;28;20026;-48
2023/07/04 12:27:00;;;;;;;10.10;2.80;;;23.00;56.20;;;;;;5006592;28;20533;-48
2023/07/04 12:29:27;;;;;;;9.80;3.08;;;23.00;56.30;;;;;;5009966;28;20029;-49
2023/07/04 12:32:12;;;;;;;8.35;3.05;;;23.00;56.30;;;;;;5009892;28;20038;-51
2023/07/04 12:34:38;;;;;;;8.88;3.13;;;23.00;56.30;;;;;;5009163;28;20083;-52
2023/07/04 12:37:05;;;;;;;5.85;3.13;;;23.00;56.40;;;;;;5009859;28;20037;-51
2023/07/04 12:39:41;;;;;;;7.10;3.00;;;23.00;56.40;;;;;;5007185;28;20026;-50
2023/07/04 12:42:18;;;;;;;6.65;2.80;;;23.00;56.40;;;;;;5008804;28;20069;-48
2023/07/04 12:44:43;;;;;;;7.05;2.67;;;23.00;56.50;;;;;;5009883;28;20037;-50
2023/07/04 12:47:14;;;;;;;9.57;2.97;;;23.00;56.80;;;;;;5008459;28;20028;-50
2023/07/04 12:49:40;;;;;;;6.60;3.15;;;23.00;56.70;;;;;;5009581;28;20307;-49
2023/07/04 12:52:06;;;;;;;6.30;2.92;;;23.00;56.60;;;;;;5008896;28;20048;-51
2023/07/04 12:54:34;;;;;;;10.40;3.13;;;23.00;56.70;;;;;;5008506;28;20136;-53
2023/07/04 12:57:01;;;;;;;11.13;3.35;;;23.00;56.70;;;;;;5009634;28;20072;-55
2023/07/04 12:59:35;;;;;;;11.25;2.95;;;23.00;56.70;;;;;;5008540;28;20058;-53